Time;durP1;ratioP1;P1;durP2;ratioP2;P2;SDS_P1;SDS_P2;PMS_P1;PMS_P2;Temp;Humidity;BMP_temperature;BMP_pressure;BME280_temperature;BME280_humidity;BME280_pressure;Samples;Min_cycle;Max_cycle;Signal;HPM_P1;HPM_P2
2023/09/09 00:01:41;;;;;;;17.85;11.10;;;;;;;;;;6258593;28;20335;-72
2023/09/09 00:04:45;;;;;;;14.07;11.77;;;;;;;;;;6258801;28;20587;-71
2023/09/09 00:07:48;;;;;;;13.93;10.65;;;;;;;;;;6258695;28;20596;-72
2023/09/09 00:10:53;;;;;;;10.90;9.88;;;;;;;;;;6273530;28;20347;-72
2023/09/09 00:13:57;;;;;;;12.52;10.27;;;;;;;;;;6258268;28;20315;-71
2023/09/09 00:17:03;;;;;;;13.15;9.88;;;;;;;;;;6258830;28;20303;-71
2023/09/09 00:20:09;;;;;;;15.82;10.10;;;;;;;;;;6258170;28;20500;-73
2023/09/09 00:23:13;;;;;;;13.57;10.95;;;;;;;;;;6258642;28;20599;-71
2023/09/09 00:26:17;;;;;;;14.68;10.23;;;;;;;;;;6272593;28;20308;-72
2023/09/09 00:29:21;;;;;;;17.77;10.45;;;;;;;;;;6258039;28;20295;-72
2023/09/09 00:32:26;;;;;;;16.63;11.13;;;;;;;;;;6255941;28;20319;-70
2023/09/09 00:35:32;;;;;;;20.25;10.75;;;;;;;;;;6257693;28;20616;-71
2023/09/09 00:38:36;;;;;;;12.52;9.80;;;;;;;;;;6255519;28;20299;-76
2023/09/09 00:41:40;;;;;;;13.85;9.55;;;;;;;;;;6272416;28;20295;-71
2023/09/09 00:44:44;;;;;;;9.88;8.85;;;;;;;;;;6255887;28;20519;-71
2023/09/09 00:47:49;;;;;;;16.15;8.80;;;;;;;;;;6258365;28;20303;-71
2023/09/09 00:50:53;;;;;;;9.68;8.73;;;;;;;;;;6257648;28;20303;-71
2023/09/09 00:53:58;;;;;;;9.60;8.70;;;;;;;;;;6257592;28;20299;-72
2023/09/09 00:57:05;;;;;;;9.57;8.27;;;;;;;;;;6257853;28;20271;-71
2023/09/09 01:00:11;;;;;;;12.35;8.70;;;;;;;;;;6260813;28;20296;-71
2023/09/09 01:03:16;;;;;;;9.93;8.73;;;;;;;;;;6265109;28;20269;-70
2023/09/09 01:06:21;;;;;;;13.93;9.52;;;;;;;;;;6266040;28;20296;-71
2023/09/09 01:09:24;;;;;;;13.50;9.30;;;;;;;;;;6279487;28;20315;-70
2023/09/09 01:12:28;;;;;;;16.50;9.13;;;;;;;;;;6262834;28;20304;-71
2023/09/09 01:15:32;;;;;;;12.20;9.25;;;;;;;;;;6261979;28;20299;-70
2023/09/09 01:18:37;;;;;;;10.02;9.05;;;;;;;;;;6262394;28;20480;-71
2023/09/09 01:21:41;;;;;;;9.63;8.70;;;;;;;;;;6260531;28;20295;-71
2023/09/09 01:24:46;;;;;;;9.23;8.48;;;;;;;;;;6263675;28;20312;-72
2023/09/09 01:27:50;;;;;;;9.70;8.68;;;;;;;;;;6279806;28;20299;-71
2023/09/09 01:30:55;;;;;;;9.73;8.93;;;;;;;;;;6263631;28;20304;-72
2023/09/09 01:33:58;;;;;;;10.50;9.07;;;;;;;;;;6262317;28;20469;-72
2023/09/09 01:37:02;;;;;;;10.23;9.07;;;;;;;;;;6264938;28;20300;-73
2023/09/09 01:40:12;;;;;;;8.95;8.05;;;;;;;;;;6262433;28;20295;-71
2023/09/09 01:43:16;;;;;;;9.13;8.32;;;;;;;;;;6277534;28;20296;-71
2023/09/09 01:46:20;;;;;;;9.80;8.90;;;;;;;;;;6262189;28;20584;-72
2023/09/09 01:49:24;;;;;;;10.85;9.13;;;;;;;;;;6259635;28;20287;-71
2023/09/09 01:52:28;;;;;;;10.68;9.63;;;;;;;;;;6257265;28;20291;-72
2023/09/09 01:55:33;;;;;;;9.95;9.15;;;;;;;;;;6272229;28;20303;-71
2023/09/09 01:58:38;;;;;;;10.05;8.65;;;;;;;;;;6255698;28;20541;-72
2023/09/09 02:01:42;;;;;;;10.63;8.68;;;;;;;;;;6255416;28;20299;-72
2023/09/09 02:04:46;;;;;;;10.20;8.65;;;;;;;;;;6255843;28;20295;-71
2023/09/09 02:07:50;;;;;;;11.23;8.85;;;;;;;;;;6272959;28;20311;-72
2023/09/09 02:10:55;;;;;;;12.75;8.80;;;;;;;;;;6256746;28;20291;-71
2023/09/09 02:13:59;;;;;;;12.82;9.27;;;;;;;;;;6255144;28;20303;-72
2023/09/09 02:17:03;;;;;;;11.32;9.60;;;;;;;;;;6255763;28;20327;-71
2023/09/09 02:20:09;;;;;;;10.48;8.75;;;;;;;;;;6271258;28;20583;-72
2023/09/09 02:23:13;;;;;;;11.77;9.05;;;;;;;;;;6257163;28;20288;-72
2023/09/09 02:26:19;;;;;;;10.57;9.57;;;;;;;;;;6256374;28;20307;-72
2023/09/09 02:29:23;;;;;;;10.32;9.30;;;;;;;;;;6256615;28;20296;-71
2023/09/09 02:32:27;;;;;;;9.43;8.57;;;;;;;;;;6272577;28;20364;-71
2023/09/09 02:35:31;;;;;;;11.80;8.60;;;;;;;;;;6259122;28;20295;-74
2023/09/09 02:38:35;;;;;;;10.55;9.45;;;;;;;;;;6260363;28;20291;-77
2023/09/09 02:41:41;;;;;;;11.30;8.38;;;;;;;;;;6259053;28;20304;-70
2023/09/09 02:44:45;;;;;;;9.18;8.25;;;;;;;;;;6260419;28;20287;-71
2023/09/09 02:47:49;;;;;;;10.02;8.98;;;;;;;;;;6261499;28;20315;-70
2023/09/09 02:50:52;;;;;;;10.60;9.43;;;;;;;;;;6260993;28;20489;-71
2023/09/09 02:54:15;;;;;;;9.77;8.85;;;;;;;;;;6259689;28;20299;-71
2023/09/09 02:57:20;;;;;;;9.52;8.75;;;;;;;;;;6259048;28;20300;-71
2023/09/09 03:00:24;;;;;;;12.20;9.27;;;;;;;;;;6260070;28;20339;-70
2023/09/09 03:03:28;;;;;;;9.27;8.40;;;;;;;;;;6257334;28;20347;-71
2023/09/09 03:06:32;;;;;;;10.10;9.23;;;;;;;;;;6260511;28;20295;-70
2023/09/09 03:09:36;;;;;;;9.52;8.82;;;;;;;;;;6258118;28;20291;-71
2023/09/09 03:12:42;;;;;;;11.43;9.00;;;;;;;;;;6257724;28;20313;-73
2023/09/09 03:15:46;;;;;;;9.85;8.93;;;;;;;;;;6260631;28;20312;-70
2023/09/09 03:18:50;;;;;;;11.40;8.85;;;;;;;;;;6258304;28;20300;-71
2023/09/09 03:21:54;;;;;;;10.50;9.25;;;;;;;;;;6258284;28;20303;-71
2023/09/09 03:24:58;;;;;;;9.35;8.65;;;;;;;;;;6259321;28;20307;-72
2023/09/09 03:28:03;;;;;;;11.13;9.27;;;;;;;;;;6259165;28;20607;-72
2023/09/09 03:31:07;;;;;;;8.80;8.00;;;;;;;;;;6259652;28;20616;-71
2023/09/09 03:34:11;;;;;;;10.18;9.27;;;;;;;;;;6258322;28;20304;-72
2023/09/09 03:37:15;;;;;;;9.80;8.90;;;;;;;;;;6258167;28;20615;-71
2023/09/09 03:40:19;;;;;;;10.90;9.57;;;;;;;;;;6256511;28;20303;-71
2023/09/09 03:43:25;;;;;;;9.77;8.85;;;;;;;;;;6258567;28;20291;-71
2023/09/09 03:46:29;;;;;;;9.07;8.25;;;;;;;;;;6259538;28;20303;-71
2023/09/09 03:49:34;;;;;;;9.80;8.55;;;;;;;;;;6257264;28;20296;-71
2023/09/09 03:52:38;;;;;;;9.70;8.77;;;;;;;;;;6273572;28;20595;-71
2023/09/09 03:55:42;;;;;;;10.43;9.43;;;;;;;;;;6273963;28;20299;-74
2023/09/09 03:58:47;;;;;;;10.40;9.27;;;;;;;;;;6273691;28;20307;-72
2023/09/09 04:01:51;;;;;;;10.40;9.40;;;;;;;;;;6259178;28;20299;-71
2023/09/09 04:04:55;;;;;;;9.75;8.70;;;;;;;;;;6273327;28;20588;-72
2023/09/09 04:08:03;;;;;;;11.38;8.57;;;;;;;;;;6257963;28;20294;-71
2023/09/09 04:11:08;;;;;;;12.95;9.77;;;;;;;;;;6273670;28;20494;-71
2023/09/09 04:14:13;;;;;;;10.35;9.45;;;;;;;;;;6258277;28;22531;-71
2023/09/09 04:17:17;;;;;;;10.98;8.52;;;;;;;;;;6258716;28;20295;-72
2023/09/09 04:20:21;;;;;;;14.75;9.48;;;;;;;;;;6257961;28;20343;-71
2023/09/09 04:23:25;;;;;;;10.57;9.02;;;;;;;;;;6257029;28;20303;-72
2023/09/09 04:26:30;;;;;;;10.30;9.13;;;;;;;;;;6257685;28;20295;-71
2023/09/09 04:29:35;;;;;;;9.60;8.90;;;;;;;;;;6273981;28;20306;-70
2023/09/09 04:32:38;;;;;;;10.40;9.45;;;;;;;;;;6256669;28;20587;-71
2023/09/09 04:35:43;;;;;;;10.02;8.55;;;;;;;;;;6257177;28;20303;-71
2023/09/09 04:38:48;;;;;;;9.50;8.73;;;;;;;;;;6254784;28;20303;-71
2023/09/09 04:41:52;;;;;;;10.80;9.80;;;;;;;;;;6273264;28;20382;-71
2023/09/09 04:44:57;;;;;;;10.65;9.52;;;;;;;;;;6257264;28;20299;-71
2023/09/09 04:48:01;;;;;;;9.73;8.93;;;;;;;;;;6255215;28;20303;-71
2023/09/09 04:51:06;;;;;;;8.52;7.93;;;;;;;;;;6256184;28;20582;-74
2023/09/09 04:54:10;;;;;;;8.60;7.93;;;;;;;;;;6256996;28;20568;-71
2023/09/09 04:57:14;;;;;;;9.00;8.40;;;;;;;;;;6255881;28;20303;-70
2023/09/09 05:00:19;;;;;;;9.65;8.75;;;;;;;;;;6255295;28;20303;-71
2023/09/09 05:03:23;;;;;;;9.80;9.00;;;;;;;;;;6272441;28;20295;-71
2023/09/09 05:06:27;;;;;;;9.23;8.52;;;;;;;;;;6256085;28;20299;-73
2023/09/09 05:09:31;;;;;;;10.60;9.40;;;;;;;;;;6255166;28;20440;-74
2023/09/09 05:12:36;;;;;;;10.65;9.60;;;;;;;;;;6256041;28;20295;-71
2023/09/09 05:15:43;;;;;;;10.65;9.43;;;;;;;;;;6255789;28;20510;-72
2023/09/09 05:18:47;;;;;;;12.55;10.07;;;;;;;;;;6272409;28;20532;-71
2023/09/09 05:21:51;;;;;;;11.80;10.07;;;;;;;;;;6256068;28;20303;-71
2023/09/09 05:24:55;;;;;;;14.27;10.48;;;;;;;;;;6256996;28;20299;-70
2023/09/09 05:27:59;;;;;;;14.52;11.07;;;;;;;;;;6255634;28;20420;-71
2023/09/09 05:31:07;;;;;;;14.23;10.48;;;;;;;;;;6272633;28;20411;-70
2023/09/09 05:34:11;;;;;;;14.73;11.23;;;;;;;;;;6271887;28;20304;-71
2023/09/09 05:37:16;;;;;;;15.73;10.57;;;;;;;;;;6255731;28;20476;-71
2023/09/09 05:40:19;;;;;;;13.93;11.07;;;;;;;;;;6254388;28;20295;-71
2023/09/09 05:43:23;;;;;;;15.43;11.20;;;;;;;;;;6271913;28;20315;-69
2023/09/09 05:46:29;;;;;;;12.93;10.80;;;;;;;;;;6255285;28;20311;-71
2023/09/09 05:49:33;;;;;;;17.65;12.05;;;;;;;;;;6257190;28;20330;-72
2023/09/09 05:52:44;;;;;;;15.18;11.43;;;;;;;;;;6254098;28;20331;-71
2023/09/09 05:55:48;;;;;;;13.82;10.60;;;;;;;;;;6255528;28;20358;-71
2023/09/09 05:58:52;;;;;;;10.93;9.82;;;;;;;;;;6271300;28;20456;-71
2023/09/09 06:01:58;;;;;;;12.18;9.90;;;;;;;;;;6255075;28;20303;-71
2023/09/09 06:05:01;;;;;;;12.30;10.27;;;;;;;;;;6271478;28;20312;-72
2023/09/09 06:08:06;;;;;;;12.00;9.73;;;;;;;;;;6275687;28;20292;-73
2023/09/09 06:11:09;;;;;;;10.70;9.63;;;;;;;;;;6276597;28;20308;-71
2023/09/09 06:14:13;;;;;;;10.95;9.05;;;;;;;;;;6259912;28;20307;-71
2023/09/09 06:17:18;;;;;;;13.35;9.50;;;;;;;;;;6261352;28;20299;-72
2023/09/09 06:20:22;;;;;;;9.95;8.95;;;;;;;;;;6260013;28;20299;-71
2023/09/09 06:23:26;;;;;;;10.20;9.27;;;;;;;;;;6259995;28;20631;-72
2023/09/09 06:26:33;;;;;;;9.52;8.63;;;;;;;;;;6261508;28;20299;-71
2023/09/09 06:29:38;;;;;;;12.02;8.27;;;;;;;;;;6258897;28;20311;-72
2023/09/09 06:32:43;;;;;;;9.23;8.57;;;;;;;;;;6274363;28;20507;-72
2023/09/09 06:35:48;;;;;;;8.68;8.00;;;;;;;;;;6259909;28;20307;-72
2023/09/09 06:38:53;;;;;;;9.30;8.38;;;;;;;;;;6259219;28;20865;-71
2023/09/09 06:41:57;;;;;;;53.53;11.40;;;;;;;;;;6261195;28;20304;-71
2023/09/09 06:45:11;;;;;;;9.02;8.23;;;;;;;;;;6258227;28;20315;-71
2023/09/09 06:48:17;;;;;;;8.98;8.18;;;;;;;;;;6275399;28;20296;-71
2023/09/09 06:51:21;;;;;;;8.80;8.15;;;;;;;;;;6260357;28;20288;-73
2023/09/09 06:54:26;;;;;;;8.90;8.13;;;;;;;;;;6260318;28;20295;-72
2023/09/09 06:57:30;;;;;;;9.07;8.27;;;;;;;;;;6259761;28;20291;-71
2023/09/09 07:00:33;;;;;;;8.98;8.02;;;;;;;;;;6260681;28;20347;-71
2023/09/09 07:03:39;;;;;;;14.68;9.23;;;;;;;;;;6259931;28;20319;-72
2023/09/09 07:06:43;;;;;;;9.73;8.77;;;;;;;;;;6260773;28;20311;-72
2023/09/09 07:10:08;;;;;;;13.88;9.98;;;;;;;;;;6259809;28;20303;-72
2023/09/09 07:13:12;;;;;;;11.98;9.88;;;;;;;;;;6236623;28;20549;-71
2023/09/09 07:16:16;;;;;;;12.88;10.00;;;;;;;;;;6244472;28;20387;-71
2023/09/09 07:19:22;;;;;;;11.13;9.15;;;;;;;;;;6258102;28;20568;-71
2023/09/09 07:22:26;;;;;;;9.85;8.93;;;;;;;;;;6259048;28;20299;-72
2023/09/09 07:25:31;;;;;;;9.13;8.40;;;;;;;;;;6259660;28;20386;-71
2023/09/09 07:28:35;;;;;;;10.70;8.95;;;;;;;;;;6258820;28;20572;-71
2023/09/09 07:31:39;;;;;;;10.15;8.27;;;;;;;;;;6259352;28;20327;-71
2023/09/09 07:34:44;;;;;;;15.20;9.40;;;;;;;;;;6259077;28;20394;-70
2023/09/09 07:37:49;;;;;;;14.57;9.80;;;;;;;;;;6258602;28;20311;-69
2023/09/09 07:40:56;;;;;;;9.60;8.68;;;;;;;;;;6256946;28;20303;-71
2023/09/09 07:44:00;;;;;;;9.25;8.48;;;;;;;;;;6258448;28;20300;-69
2023/09/09 07:47:06;;;;;;;9.23;7.60;;;;;;;;;;6258915;28;20311;-69
2023/09/09 07:50:12;;;;;;;9.80;8.52;;;;;;;;;;6258885;28;20299;-70
2023/09/09 07:53:16;;;;;;;8.65;7.07;;;;;;;;;;6272535;28;20335;-70
2023/09/09 07:56:19;;;;;;;7.32;6.80;;;;;;;;;;6258880;28;20343;-69
2023/09/09 07:59:23;;;;;;;7.20;6.70;;;;;;;;;;6258278;28;20331;-72
2023/09/09 08:02:27;;;;;;;7.30;6.72;;;;;;;;;;6258158;28;20296;-69
2023/09/09 08:05:32;;;;;;;8.57;7.68;;;;;;;;;;6258331;28;20307;-69
2023/09/09 08:08:36;;;;;;;11.93;8.45;;;;;;;;;;6257917;28;20303;-70
2023/09/09 08:11:40;;;;;;;9.63;8.18;;;;;;;;;;6258565;28;20292;-70
2023/09/09 08:14:44;;;;;;;9.45;8.18;;;;;;;;;;6257179;28;20552;-70
2023/09/09 08:17:47;;;;;;;12.13;8.70;;;;;;;;;;6257642;28;20304;-71
2023/09/09 08:20:53;;;;;;;7.80;6.80;;;;;;;;;;6258246;28;20308;-71
2023/09/09 08:23:59;;;;;;;7.78;7.10;;;;;;;;;;6257964;28;20300;-72
2023/09/09 08:27:03;;;;;;;7.60;7.07;;;;;;;;;;6257555;28;20276;-72
2023/09/09 08:30:07;;;;;;;6.72;6.28;;;;;;;;;;6257963;28;20303;-71
2023/09/09 08:33:11;;;;;;;8.30;7.55;;;;;;;;;;6257539;28;20299;-72
2023/09/09 08:36:17;;;;;;;7.00;6.47;;;;;;;;;;6273678;28;20280;-70
2023/09/09 08:39:21;;;;;;;7.03;6.47;;;;;;;;;;6255093;28;20472;-69
2023/09/09 08:42:41;;;;;;;6.88;6.22;;;;;;;;;;6257318;28;20347;-72
2023/09/09 08:45:51;;;;;;;6.00;5.20;;;;;;;;;;6257265;28;20307;-70
2023/09/09 08:48:55;;;;;;;6.55;5.70;;;;;;;;;;6257405;28;20300;-71
2023/09/09 08:52:04;;;;;;;6.90;5.63;;;;;;;;;;6271918;28;20315;-70
2023/09/09 08:55:09;;;;;;;5.35;4.80;;;;;;;;;;6257147;28;20295;-70
2023/09/09 08:58:12;;;;;;;5.45;5.15;;;;;;;;;;6256829;28;20307;-70
2023/09/09 09:01:18;;;;;;;6.03;5.47;;;;;;;;;;6257618;28;20304;-70
2023/09/09 09:04:22;;;;;;;5.70;5.20;;;;;;;;;;6256438;28;20491;-71
2023/09/09 09:07:28;;;;;;;5.88;5.38;;;;;;;;;;6257095;28;20291;-70
2023/09/09 09:10:32;;;;;;;5.88;5.40;;;;;;;;;;6257218;28;20299;-70
2023/09/09 09:13:36;;;;;;;6.30;5.70;;;;;;;;;;6256359;28;20299;-71
2023/09/09 09:16:41;;;;;;;5.43;5.03;;;;;;;;;;6257096;28;20299;-70
2023/09/09 09:19:45;;;;;;;5.43;4.45;;;;;;;;;;6257043;28;20303;-70
2023/09/09 09:22:50;;;;;;;5.65;5.28;;;;;;;;;;6256746;28;20307;-70
2023/09/09 09:25:54;;;;;;;4.95;4.75;;;;;;;;;;6257087;28;20295;-70
2023/09/09 09:28:58;;;;;;;5.35;4.85;;;;;;;;;;6256215;28;20299;-69
2023/09/09 09:32:03;;;;;;;4.72;4.30;;;;;;;;;;6256669;28;20319;-69
2023/09/09 09:35:22;;;;;;;4.10;3.90;;;;;;;;;;6256012;28;20351;-68
2023/09/09 09:38:27;;;;;;;3.83;3.72;;;;;;;;;;6256687;28;20302;-70
2023/09/09 09:41:31;;;;;;;4.25;3.90;;;;;;;;;;6256878;28;20303;-70
2023/09/09 09:44:34;;;;;;;3.95;3.75;;;;;;;;;;6259975;28;20291;-69
2023/09/09 09:47:43;;;;;;;3.92;3.72;;;;;;;;;;6261150;28;20327;-69
2023/09/09 09:50:53;;;;;;;3.75;3.65;;;;;;;;;;6261872;28;20295;-70
2023/09/09 09:53:58;;;;;;;6.53;4.20;;;;;;;;;;6261371;28;20303;-70
2023/09/09 09:57:03;;;;;;;3.67;3.55;;;;;;;;;;6261312;28;20275;-71
2023/09/09 10:00:08;;;;;;;3.47;3.20;;;;;;;;;;6261057;28;20266;-70
2023/09/09 10:03:14;;;;;;;5.32;3.42;;;;;;;;;;6266387;28;20511;-71
2023/09/09 10:06:23;;;;;;;3.10;3.00;;;;;;;;;;6261608;28;20315;-68
2023/09/09 10:09:33;;;;;;;4.90;3.67;;;;;;;;;;6276308;28;20384;-71
2023/09/09 10:12:41;;;;;;;4.75;3.75;;;;;;;;;;6260741;28;20311;-71
2023/09/09 10:15:52;;;;;;;3.47;3.20;;;;;;;;;;6260997;28;20303;-71
2023/09/09 10:18:56;;;;;;;3.75;3.55;;;;;;;;;;6260697;28;20299;-71
2023/09/09 10:22:00;;;;;;;5.03;3.70;;;;;;;;;;6261209;28;20323;-69
2023/09/09 10:25:10;;;;;;;3.70;3.17;;;;;;;;;;6260486;28;20307;-68
2023/09/09 10:28:15;;;;;;;4.03;3.72;;;;;;;;;;6260309;28;20299;-69
2023/09/09 10:31:19;;;;;;;3.50;3.20;;;;;;;;;;6260386;28;20311;-69
2023/09/09 10:34:23;;;;;;;3.53;3.20;;;;;;;;;;6260193;28;20294;-68
2023/09/09 10:37:27;;;;;;;3.80;3.53;;;;;;;;;;6260590;28;20303;-68
2023/09/09 10:40:34;;;;;;;4.15;3.13;;;;;;;;;;6258400;28;20307;-69
2023/09/09 10:43:38;;;;;;;3.65;3.55;;;;;;;;;;6259572;28;20299;-70
2023/09/09 10:46:43;;;;;;;3.63;3.42;;;;;;;;;;6260122;28;20347;-69
2023/09/09 10:49:46;;;;;;;6.35;3.65;;;;;;;;;;6260509;28;20307;-70
2023/09/09 10:53:13;;;;;;;3.55;3.40;;;;;;;;;;6258391;28;20408;-70
2023/09/09 10:56:25;;;;;;;3.97;3.78;;;;;;;;;;6258778;28;20304;-69
2023/09/09 10:59:31;;;;;;;3.60;3.50;;;;;;;;;;6259790;28;20300;-70
2023/09/09 11:02:45;;;;;;;4.80;3.70;;;;;;;;;;6259403;28;20299;-70
2023/09/09 11:06:00;;;;;;;3.92;3.67;;;;;;;;;;6260324;28;20304;-68
2023/09/09 11:09:04;;;;;;;5.53;3.60;;;;;;;;;;6258904;28;20312;-69
2023/09/09 11:12:13;;;;;;;6.10;3.70;;;;;;;;;;6259239;28;20503;-69
2023/09/09 11:15:17;;;;;;;9.32;4.10;;;;;;;;;;6259762;28;20299;-68
2023/09/09 11:18:21;;;;;;;3.95;3.35;;;;;;;;;;6239448;28;20316;-69
2023/09/09 11:21:25;;;;;;;3.72;3.40;;;;;;;;;;6235555;28;20296;-70
2023/09/09 11:24:29;;;;;;;3.65;3.38;;;;;;;;;;6235353;28;20300;-70
2023/09/09 11:27:34;;;;;;;3.80;3.60;;;;;;;;;;6234314;28;20323;-70
2023/09/09 11:30:41;;;;;;;3.78;3.58;;;;;;;;;;6234864;28;20667;-69
2023/09/09 11:33:46;;;;;;;3.88;3.67;;;;;;;;;;6234656;28;20304;-70
2023/09/09 11:36:49;;;;;;;3.55;3.45;;;;;;;;;;6234916;28;20304;-71
2023/09/09 11:39:53;;;;;;;3.95;3.80;;;;;;;;;;6232090;28;20646;-69
2023/09/09 11:42:58;;;;;;;3.75;3.42;;;;;;;;;;6235305;28;20308;-69
2023/09/09 11:46:02;;;;;;;6.22;3.50;;;;;;;;;;6259358;28;20307;-69
2023/09/09 11:49:07;;;;;;;3.50;3.40;;;;;;;;;;6258238;28;20327;-69
2023/09/09 11:52:11;;;;;;;3.58;3.47;;;;;;;;;;6258791;28;20298;-69
2023/09/09 11:55:17;;;;;;;3.75;3.45;;;;;;;;;;6256862;28;20471;-70
2023/09/09 11:58:22;;;;;;;3.60;3.50;;;;;;;;;;6257736;28;20295;-70
2023/09/09 12:01:26;;;;;;;3.60;3.28;;;;;;;;;;6257531;28;20299;-70
2023/09/09 12:04:30;;;;;;;3.42;3.15;;;;;;;;;;6257924;28;20299;-69
2023/09/09 12:07:36;;;;;;;4.68;3.38;;;;;;;;;;6258212;28;20298;-69
2023/09/09 12:10:40;;;;;;;3.20;3.08;;;;;;;;;;6258396;28;20296;-69
2023/09/09 12:13:45;;;;;;;10.32;3.35;;;;;;;;;;6258080;28;20510;-70
2023/09/09 12:16:49;;;;;;;2.90;2.70;;;;;;;;;;6258581;28;20440;-70
2023/09/09 12:19:56;;;;;;;3.60;3.30;;;;;;;;;;6257349;28;20580;-68
2023/09/09 12:23:00;;;;;;;3.17;3.03;;;;;;;;;;6258401;28;20307;-69
2023/09/09 12:26:11;;;;;;;3.17;3.08;;;;;;;;;;6257265;28;20292;-68
2023/09/09 12:29:16;;;;;;;3.33;3.25;;;;;;;;;;6257647;28;20299;-72
2023/09/09 12:32:20;;;;;;;3.25;3.00;;;;;;;;;;6257592;28;20327;-71
2023/09/09 12:35:24;;;;;;;2.90;2.80;;;;;;;;;;6257054;28;20319;-69
2023/09/09 12:38:28;;;;;;;3.00;2.85;;;;;;;;;;6257372;28;20368;-68
2023/09/09 12:41:32;;;;;;;2.92;2.92;;;;;;;;;;6255581;28;20315;-68
2023/09/09 12:44:51;;;;;;;3.22;3.03;;;;;;;;;;6257379;28;20315;-69
2023/09/09 12:47:54;;;;;;;2.95;2.78;;;;;;;;;;6257551;28;20291;-69
2023/09/09 12:50:59;;;;;;;2.78;2.78;;;;;;;;;;6256598;28;20294;-69
2023/09/09 12:54:02;;;;;;;2.80;2.70;;;;;;;;;;6256268;28;20311;-68
2023/09/09 12:57:06;;;;;;;3.42;3.25;;;;;;;;;;6257213;28;20268;-69
2023/09/09 13:00:13;;;;;;;4.32;3.00;;;;;;;;;;6256813;28;20491;-69
2023/09/09 13:03:17;;;;;;;3.10;2.88;;;;;;;;;;6256182;28;20304;-69
2023/09/09 13:06:21;;;;;;;4.20;2.65;;;;;;;;;;6257544;28;20631;-69
2023/09/09 13:09:25;;;;;;;3.00;3.00;;;;;;;;;;6256267;28;20341;-70
2023/09/09 13:12:29;;;;;;;2.90;2.80;;;;;;;;;;6256719;28;20435;-69
2023/09/09 13:15:34;;;;;;;4.43;3.67;;;;;;;;;;6256287;28;20351;-69
2023/09/09 13:18:38;;;;;;;3.63;3.50;;;;;;;;;;6256740;28;20571;-69
2023/09/09 13:21:42;;;;;;;3.20;2.95;;;;;;;;;;6256633;28;20299;-68
2023/09/09 13:24:45;;;;;;;2.55;2.53;;;;;;;;;;6256478;28;20307;-69
2023/09/09 13:27:50;;;;;;;2.88;2.78;;;;;;;;;;6256566;28;20291;-69
2023/09/09 13:30:55;;;;;;;2.85;2.72;;;;;;;;;;6256769;28;20499;-69
2023/09/09 13:33:59;;;;;;;3.55;2.97;;;;;;;;;;6256156;28;20307;-70
2023/09/09 13:37:03;;;;;;;2.50;2.40;;;;;;;;;;6256704;28;20311;-67
2023/09/09 13:40:08;;;;;;;2.78;2.58;;;;;;;;;;6253905;28;20303;-69
2023/09/09 13:43:12;;;;;;;2.70;2.60;;;;;;;;;;6256322;28;20387;-69
2023/09/09 13:46:18;;;;;;;3.22;2.90;;;;;;;;;;6256883;28;20303;-69
2023/09/09 13:49:21;;;;;;;2.60;2.50;;;;;;;;;;6256562;28;20311;-69
2023/09/09 13:52:25;;;;;;;3.03;2.70;;;;;;;;;;6255869;28;20331;-69
2023/09/09 13:55:29;;;;;;;3.13;3.08;;;;;;;;;;6256750;28;20303;-69
2023/09/09 13:58:33;;;;;;;4.65;2.90;;;;;;;;;;6257225;28;20315;-71
2023/09/09 14:01:38;;;;;;;3.38;2.75;;;;;;;;;;6258311;28;20303;-70
2023/09/09 14:04:42;;;;;;;2.63;2.63;;;;;;;;;;6257097;28;20489;-70
2023/09/09 14:07:46;;;;;;;4.00;2.70;;;;;;;;;;6255928;28;20310;-70
2023/09/09 14:10:50;;;;;;;2.80;2.70;;;;;;;;;;6255313;28;20304;-70
2023/09/09 14:13:53;;;;;;;2.95;2.85;;;;;;;;;;6256377;28;20339;-70
2023/09/09 14:16:59;;;;;;;2.83;2.72;;;;;;;;;;6256373;28;20299;-71
2023/09/09 14:20:03;;;;;;;3.08;2.97;;;;;;;;;;6255661;28;20311;-69
2023/09/09 14:23:07;;;;;;;3.08;2.97;;;;;;;;;;6255852;28;20288;-70
2023/09/09 14:26:11;;;;;;;2.88;2.78;;;;;;;;;;6256297;28;20301;-69
2023/09/09 14:29:14;;;;;;;3.28;2.65;;;;;;;;;;6259849;28;20495;-71
2023/09/09 14:32:20;;;;;;;3.17;2.97;;;;;;;;;;6260557;28;20323;-72
2023/09/09 14:35:24;;;;;;;3.45;3.22;;;;;;;;;;6260266;28;20323;-69
2023/09/09 14:38:27;;;;;;;4.03;3.20;;;;;;;;;;6259558;28;20295;-71
2023/09/09 14:41:31;;;;;;;3.35;3.15;;;;;;;;;;6258634;28;20307;-70
2023/09/09 14:44:35;;;;;;;7.35;2.88;;;;;;;;;;6260280;28;20579;-70
2023/09/09 14:47:40;;;;;;;3.30;2.80;;;;;;;;;;6258289;28;20436;-71
2023/09/09 14:50:44;;;;;;;3.00;3.00;;;;;;;;;;6260688;28;20304;-71
2023/09/09 14:53:48;;;;;;;2.90;2.90;;;;;;;;;;6259932;28;20304;-70
2023/09/09 14:56:55;;;;;;;3.22;3.00;;;;;;;;;;6261148;28;20307;-72
2023/09/09 15:00:00;;;;;;;3.20;3.00;;;;;;;;;;6257360;28;20292;-71
2023/09/09 15:03:07;;;;;;;3.20;3.10;;;;;;;;;;6260158;28;20299;-71
2023/09/09 15:06:11;;;;;;;3.03;2.83;;;;;;;;;;6259884;28;20238;-71
2023/09/09 15:09:15;;;;;;;2.83;2.72;;;;;;;;;;6260453;28;20307;-70
2023/09/09 15:12:19;;;;;;;2.80;2.80;;;;;;;;;;6259561;28;20307;-70
2023/09/09 15:15:23;;;;;;;4.78;2.90;;;;;;;;;;6259711;28;20299;-72
2023/09/09 15:18:28;;;;;;;3.22;2.95;;;;;;;;;;6258446;28;20351;-70
2023/09/09 15:21:32;;;;;;;3.25;3.15;;;;;;;;;;6259485;28;20295;-72
2023/09/09 15:24:36;;;;;;;2.92;2.92;;;;;;;;;;6259162;28;20479;-72
2023/09/09 15:27:40;;;;;;;3.47;3.35;;;;;;;;;;6259139;28;20295;-70
2023/09/09 15:30:43;;;;;;;3.97;3.60;;;;;;;;;;6257941;28;20485;-72
2023/09/09 15:33:49;;;;;;;3.88;3.67;;;;;;;;;;6258853;28;20331;-71
2023/09/09 15:36:53;;;;;;;3.33;3.22;;;;;;;;;;6275129;28;20331;-70
2023/09/09 15:39:57;;;;;;;3.55;3.55;;;;;;;;;;6256588;28;20313;-70
2023/09/09 15:43:01;;;;;;;3.50;3.40;;;;;;;;;;6258569;28;20292;-69
2023/09/09 15:46:05;;;;;;;3.17;2.97;;;;;;;;;;6258123;28;20304;-70
2023/09/09 15:49:10;;;;;;;3.85;3.50;;;;;;;;;;6257316;28;20303;-70
2023/09/09 15:52:14;;;;;;;3.33;3.08;;;;;;;;;;6258985;28;20295;-69
2023/09/09 15:55:18;;;;;;;5.07;4.78;;;;;;;;;;6257816;28;20536;-71
2023/09/09 15:58:22;;;;;;;4.40;4.10;;;;;;;;;;6258126;28;20487;-70
2023/09/09 16:01:25;;;;;;;4.40;4.13;;;;;;;;;;6258439;28;20238;-69
2023/09/09 16:04:31;;;;;;;3.95;3.72;;;;;;;;;;6258198;28;20650;-71
2023/09/09 16:07:38;;;;;;;4.53;4.43;;;;;;;;;;6257802;28;20295;-69
2023/09/09 16:10:42;;;;;;;8.50;4.90;;;;;;;;;;6258075;28;20295;-70
2023/09/09 16:13:46;;;;;;;5.30;4.95;;;;;;;;;;6257760;28;20307;-70
2023/09/09 16:16:52;;;;;;;5.70;5.32;;;;;;;;;;6257893;28;20315;-71
2023/09/09 16:19:57;;;;;;;6.45;6.07;;;;;;;;;;6257760;28;20809;-70
2023/09/09 16:23:01;;;;;;;6.60;6.20;;;;;;;;;;6257818;28;20303;-75
2023/09/09 16:26:05;;;;;;;6.18;5.85;;;;;;;;;;6258329;28;20303;-69
2023/09/09 16:29:09;;;;;;;5.93;5.65;;;;;;;;;;6257420;28;20307;-70
2023/09/09 16:32:13;;;;;;;6.30;6.10;;;;;;;;;;6257261;28;20315;-72
2023/09/09 16:35:18;;;;;;;6.63;6.18;;;;;;;;;;6257481;28;20324;-73
2023/09/09 16:38:22;;;;;;;7.15;6.75;;;;;;;;;;6257653;28;20299;-70
2023/09/09 16:41:26;;;;;;;7.43;6.88;;;;;;;;;;6255876;28;20575;-72
2023/09/09 16:44:30;;;;;;;6.95;6.47;;;;;;;;;;6257314;28;20410;-71
2023/09/09 16:47:34;;;;;;;7.38;6.78;;;;;;;;;;6256845;28;20307;-70
2023/09/09 16:50:39;;;;;;;6.60;6.30;;;;;;;;;;6257055;28;20323;-69
2023/09/09 16:53:43;;;;;;;7.72;7.03;;;;;;;;;;6257225;28;20295;-70
2023/09/09 16:56:49;;;;;;;6.95;6.60;;;;;;;;;;6257767;28;20299;-70
2023/09/09 16:59:52;;;;;;;7.97;7.47;;;;;;;;;;6256911;28;20307;-71
2023/09/09 17:02:56;;;;;;;8.77;8.07;;;;;;;;;;6258086;28;20318;-70
2023/09/09 17:06:02;;;;;;;8.48;7.97;;;;;;;;;;6256962;28;20271;-70
2023/09/09 17:09:06;;;;;;;8.27;7.57;;;;;;;;;;6257093;28;20307;-71
2023/09/09 17:12:10;;;;;;;8.82;8.07;;;;;;;;;;6256707;28;20244;-71
2023/09/09 17:15:14;;;;;;;9.00;8.13;;;;;;;;;;6256837;28;20303;-71
2023/09/09 17:18:18;;;;;;;9.23;8.38;;;;;;;;;;6256384;28;20603;-70
2023/09/09 17:21:23;;;;;;;8.90;8.15;;;;;;;;;;6257131;28;20299;-72
2023/09/09 17:24:26;;;;;;;10.32;9.35;;;;;;;;;;6271336;28;20440;-71
2023/09/09 17:27:30;;;;;;;9.55;8.75;;;;;;;;;;6257072;28;20303;-71
2023/09/09 17:30:34;;;;;;;8.88;8.13;;;;;;;;;;6257230;28;20330;-71
2023/09/09 17:33:38;;;;;;;8.50;7.70;;;;;;;;;;6255285;28;20554;-71
2023/09/09 17:36:44;;;;;;;9.05;8.35;;;;;;;;;;6257085;28;20323;-71
2023/09/09 17:39:48;;;;;;;8.20;7.70;;;;;;;;;;6254804;28;20307;-71
2023/09/09 17:42:53;;;;;;;8.23;7.55;;;;;;;;;;6256532;28;20302;-74
2023/09/09 17:45:57;;;;;;;8.82;7.97;;;;;;;;;;6257236;28;20299;-71
2023/09/09 17:49:02;;;;;;;8.80;8.10;;;;;;;;;;6256240;28;20323;-70
2023/09/09 17:52:07;;;;;;;8.48;7.70;;;;;;;;;;6257138;28;20489;-70
2023/09/09 17:55:14;;;;;;;8.45;7.75;;;;;;;;;;6256451;28;20319;-70
2023/09/09 17:58:18;;;;;;;8.52;7.90;;;;;;;;;;6256508;28;20295;-70
2023/09/09 18:01:22;;;;;;;9.13;8.43;;;;;;;;;;6257011;28;20340;-71
2023/09/09 18:04:26;;;;;;;9.57;8.88;;;;;;;;;;6261578;28;20308;-73
2023/09/09 18:07:31;;;;;;;9.43;8.73;;;;;;;;;;6261240;28;20630;-73
2023/09/09 18:10:35;;;;;;;10.20;9.05;;;;;;;;;;6261785;28;20288;-72
2023/09/09 18:13:39;;;;;;;9.57;8.77;;;;;;;;;;6260903;28;20307;-69
2023/09/09 18:16:43;;;;;;;18.80;14.55;;;;;;;;;;6261569;28;20307;-70
2023/09/09 18:19:47;;;;;;;10.93;9.57;;;;;;;;;;6261269;28;20316;-73
2023/09/09 18:22:53;;;;;;;10.85;9.93;;;;;;;;;;6260868;28;20311;-71